sensor_id;sensor_type;location;lat;lon;timestamp;pressure;altitude;pressure_sealevel;temperature;humidity
47873;BME280;73966;47.438;18.912;2023-12-07T00:00:45;99670.84;;;3.83;69.10
47873;BME280;73966;47.438;18.912;2023-12-07T00:03:16;99669.81;;;3.48;70.26
47873;BME280;73966;47.438;18.912;2023-12-07T00:05:45;99678.91;;;3.39;70.70
47873;BME280;73966;47.438;18.912;2023-12-07T00:08:16;99677.16;;;3.60;70.21
47873;BME280;73966;47.438;18.912;2023-12-07T00:10:45;99683.25;;;3.61;69.94
47873;BME280;73966;47.438;18.912;2023-12-07T00:13:14;99675.88;;;3.69;69.66
47873;BME280;73966;47.438;18.912;2023-12-07T00:15:44;99678.34;;;3.72;69.64
47873;BME280;73966;47.438;18.912;2023-12-07T00:18:14;99674.78;;;3.54;70.01
47873;BME280;73966;47.438;18.912;2023-12-07T00:20:44;99676.31;;;3.79;69.52
47873;BME280;73966;47.438;18.912;2023-12-07T00:23:14;99684.34;;;3.55;70.01
47873;BME280;73966;47.438;18.912;2023-12-07T00:25:43;99678.69;;;3.85;69.17
47873;BME280;73966;47.438;18.912;2023-12-07T00:28:14;99684.34;;;3.55;69.87
47873;BME280;73966;47.438;18.912;2023-12-07T00:30:44;99686.75;;;3.60;70.06
47873;BME280;73966;47.438;18.912;2023-12-07T00:33:13;99684.09;;;3.61;69.96
47873;BME280;73966;47.438;18.912;2023-12-07T00:35:44;99680.53;;;3.62;69.66
47873;BME280;73966;47.438;18.912;2023-12-07T00:38:13;99680.47;;;3.64;69.76
47873;BME280;73966;47.438;18.912;2023-12-07T00:40:42;99686.72;;;3.61;69.58
47873;BME280;73966;47.438;18.912;2023-12-07T00:43:11;99686.75;;;3.60;69.77
47873;BME280;73966;47.438;18.912;2023-12-07T00:45:41;99688.97;;;3.30;71.06
47873;BME280;73966;47.438;18.912;2023-12-07T00:48:10;99685.22;;;3.35;70.61
47873;BME280;73966;47.438;18.912;2023-12-07T00:50:39;99679.44;;;3.27;71.17
47873;BME280;73966;47.438;18.912;2023-12-07T00:53:09;99684.91;;;3.23;71.28
47873;BME280;73966;47.438;18.912;2023-12-07T00:55:39;99682.72;;;3.32;71.02
47873;BME280;73966;47.438;18.912;2023-12-07T00:58:09;99686.66;;;3.22;71.19
47873;BME280;73966;47.438;18.912;2023-12-07T01:00:37;99680.97;;;3.33;70.93
47873;BME280;73966;47.438;18.912;2023-12-07T01:03:07;99681.94;;;3.10;71.67
47873;BME280;73966;47.438;18.912;2023-12-07T01:05:36;99685.84;;;3.40;70.83
47873;BME280;73966;47.438;18.912;2023-12-07T01:08:05;99687.56;;;3.01;72.36
47873;BME280;73966;47.438;18.912;2023-12-07T01:10:36;99685.50;;;3.29;71.34
47873;BME280;73966;47.438;18.912;2023-12-07T01:13:05;99676.50;;;3.14;71.59
47873;BME280;73966;47.438;18.912;2023-12-07T01:15:35;99675.19;;;3.25;71.51
47873;BME280;73966;47.438;18.912;2023-12-07T01:18:04;99667.22;;;3.28;71.31
47873;BME280;73966;47.438;18.912;2023-12-07T01:20:33;99667.53;;;3.20;71.52
47873;BME280;73966;47.438;18.912;2023-12-07T01:23:03;99666.50;;;3.24;71.19
47873;BME280;73966;47.438;18.912;2023-12-07T01:25:33;99668.59;;;3.16;71.72
47873;BME280;73966;47.438;18.912;2023-12-07T01:28:04;99672.97;;;3.36;71.00
47873;BME280;73966;47.438;18.912;2023-12-07T01:30:33;99665.13;;;3.15;71.52
47873;BME280;73966;47.438;18.912;2023-12-07T01:33:04;99667.41;;;3.23;71.49
47873;BME280;73966;47.438;18.912;2023-12-07T01:35:33;99661.06;;;3.08;71.72
47873;BME280;73966;47.438;18.912;2023-12-07T01:38:04;99666.16;;;3.11;71.90
47873;BME280;73966;47.438;18.912;2023-12-07T01:40:34;99665.06;;;3.17;71.52
47873;BME280;73966;47.438;18.912;2023-12-07T01:43:04;99663.22;;;3.19;71.62
47873;BME280;73966;47.438;18.912;2023-12-07T01:45:34;99671.31;;;2.92;72.26
47873;BME280;73966;47.438;18.912;2023-12-07T01:48:04;99667.53;;;3.20;71.73
47873;BME280;73966;47.438;18.912;2023-12-07T01:50:34;99669.59;;;3.13;71.63
47873;BME280;73966;47.438;18.912;2023-12-07T01:53:04;99664.16;;;3.18;71.48
47873;BME280;73966;47.438;18.912;2023-12-07T01:55:39;99654.41;;;3.01;72.11
47873;BME280;73966;47.438;18.912;2023-12-07T01:58:09;99659.88;;;3.15;71.78
47873;BME280;73966;47.438;18.912;2023-12-07T02:00:39;99669.94;;;3.25;71.60
47873;BME280;73966;47.438;18.912;2023-12-07T02:03:09;99667.34;;;3.04;72.08
47873;BME280;73966;47.438;18.912;2023-12-07T02:05:42;99665.63;;;3.24;71.56
47873;BME280;73966;47.438;18.912;2023-12-07T02:08:12;99665.91;;;3.38;70.95
47873;BME280;73966;47.438;18.912;2023-12-07T02:10:41;99669.97;;;3.45;70.72
47873;BME280;73966;47.438;18.912;2023-12-07T02:13:12;99668.84;;;3.51;70.50
47873;BME280;73966;47.438;18.912;2023-12-07T02:15:42;99665.19;;;3.34;70.95
47873;BME280;73966;47.438;18.912;2023-12-07T02:18:16;99660.59;;;3.39;70.88
47873;BME280;73966;47.438;18.912;2023-12-07T02:20:53;99653.56;;;3.40;71.01
47873;BME280;73966;47.438;18.912;2023-12-07T02:23:27;99661.25;;;3.44;70.75
47873;BME280;73966;47.438;18.912;2023-12-07T02:26:18;99656.94;;;3.03;72.12
47873;BME280;73966;47.438;18.912;2023-12-07T02:28:49;99659.44;;;3.26;71.27
47873;BME280;73966;47.438;18.912;2023-12-07T02:31:20;99664.13;;;3.38;71.03
47873;BME280;73966;47.438;18.912;2023-12-07T02:33:49;99658.81;;;3.40;70.83
47873;BME280;73966;47.438;18.912;2023-12-07T02:36:20;99669.97;;;3.45;70.73
47873;BME280;73966;47.438;18.912;2023-12-07T02:38:51;99665.91;;;3.38;70.61
47873;BME280;73966;47.438;18.912;2023-12-07T02:41:23;99666.09;;;3.54;70.32
47873;BME280;73966;47.438;18.912;2023-12-07T02:43:56;99663.31;;;3.17;71.52
47873;BME280;73966;47.438;18.912;2023-12-07T02:46:26;99665.19;;;3.14;71.99
47873;BME280;73966;47.438;18.912;2023-12-07T02:48:57;99667.66;;;2.96;72.29
47873;BME280;73966;47.438;18.912;2023-12-07T02:51:27;99664.47;;;3.31;71.32
47873;BME280;73966;47.438;18.912;2023-12-07T02:53:58;99665.19;;;3.14;71.67
47873;BME280;73966;47.438;18.912;2023-12-07T02:56:28;99664.34;;;3.34;70.78
47873;BME280;73966;47.438;18.912;2023-12-07T02:58:59;99662.09;;;3.25;71.27
47873;BME280;73966;47.438;18.912;2023-12-07T03:01:28;99662.31;;;3.20;71.55
47873;BME280;73966;47.438;18.912;2023-12-07T03:03:58;99665.37;;;3.30;71.04
47873;BME280;73966;47.438;18.912;2023-12-07T03:06:27;99669.28;;;3.40;70.81
47873;BME280;73966;47.438;18.912;2023-12-07T03:09:01;99672.41;;;3.29;71.05
47873;BME280;73966;47.438;18.912;2023-12-07T03:11:31;99670.81;;;3.45;70.81
47873;BME280;73966;47.438;18.912;2023-12-07T03:14:02;99685.47;;;3.50;70.42
47873;BME280;73966;47.438;18.912;2023-12-07T03:16:32;99677.69;;;3.28;70.87
47873;BME280;73966;47.438;18.912;2023-12-07T03:19:01;99690.72;;;3.50;70.42
47873;BME280;73966;47.438;18.912;2023-12-07T03:21:30;99685.34;;;3.53;70.14
47873;BME280;73966;47.438;18.912;2023-12-07T03:24:00;99681.34;;;3.24;71.16
47873;BME280;73966;47.438;18.912;2023-12-07T03:26:32;99680.69;;;3.39;70.69
47873;BME280;73966;47.438;18.912;2023-12-07T03:29:02;99686.66;;;3.22;71.18
47873;BME280;73966;47.438;18.912;2023-12-07T03:31:32;99686.22;;;3.33;70.59
47873;BME280;73966;47.438;18.912;2023-12-07T03:34:01;99691.66;;;3.67;69.82
47873;BME280;73966;47.438;18.912;2023-12-07T03:36:34;99686.75;;;3.60;69.94
47873;BME280;73966;47.438;18.912;2023-12-07T03:39:04;99681.53;;;3.60;69.91
47873;BME280;73966;47.438;18.912;2023-12-07T03:41:33;99688.22;;;3.47;70.30
47873;BME280;73966;47.438;18.912;2023-12-07T03:44:05;99688.03;;;3.10;71.55
47873;BME280;73966;47.438;18.912;2023-12-07T03:46:34;99686.06;;;3.15;71.48
47873;BME280;73966;47.438;18.912;2023-12-07T03:49:03;99689.88;;;3.29;71.04
47873;BME280;73966;47.438;18.912;2023-12-07T03:51:33;99687.19;;;3.30;70.64
47873;BME280;73966;47.438;18.912;2023-12-07T03:54:05;99698.09;;;3.40;70.45
47873;BME280;73966;47.438;18.912;2023-12-07T03:56:36;99693.78;;;3.39;70.80
47873;BME280;73966;47.438;18.912;2023-12-07T03:59:06;99690.50;;;3.54;70.15
47873;BME280;73966;47.438;18.912;2023-12-07T04:01:38;99691.03;;;3.62;69.94
47873;BME280;73966;47.438;18.912;2023-12-07T04:04:07;99693.78;;;3.59;69.90
47873;BME280;73966;47.438;18.912;2023-12-07T04:06:37;99695.28;;;3.65;69.78
47873;BME280;73966;47.438;18.912;2023-12-07T04:09:06;99702.38;;;3.42;70.26
47873;BME280;73966;47.438;18.912;2023-12-07T04:11:36;99705.31;;;3.55;70.07
47873;BME280;73966;47.438;18.912;2023-12-07T04:14:07;99704.03;;;3.64;69.78
47873;BME280;73966;47.438;18.912;2023-12-07T04:16:36;99712.97;;;3.60;70.05
47873;BME280;73966;47.438;18.912;2023-12-07T04:19:05;99713.00;;;3.79;69.31
47873;BME280;73966;47.438;18.912;2023-12-07T04:21:37;99714.56;;;3.83;69.14
47873;BME280;73966;47.438;18.912;2023-12-07T04:24:06;99714.56;;;3.83;69.20
47873;BME280;73966;47.438;18.912;2023-12-07T04:26:35;99709.97;;;3.88;68.90
47873;BME280;73966;47.438;18.912;2023-12-07T04:29:06;99718.47;;;3.74;69.41
47873;BME280;73966;47.438;18.912;2023-12-07T04:31:36;99714.41;;;3.47;69.82
47873;BME280;73966;47.438;18.912;2023-12-07T04:34:06;99718.97;;;3.82;69.06
47873;BME280;73966;47.438;18.912;2023-12-07T04:36:36;99716.81;;;3.72;69.14
47873;BME280;73966;47.438;18.912;2023-12-07T04:39:05;99724.53;;;3.75;69.37
47873;BME280;73966;47.438;18.912;2023-12-07T04:41:37;99724.28;;;3.81;69.03
47873;BME280;73966;47.438;18.912;2023-12-07T04:44:08;99729.00;;;3.73;69.24
47873;BME280;73966;47.438;18.912;2023-12-07T04:46:38;99736.28;;;3.66;69.55
47873;BME280;73966;47.438;18.912;2023-12-07T04:49:08;99724.34;;;3.79;69.27
47873;BME280;73966;47.438;18.912;2023-12-07T04:51:40;99732.16;;;3.81;69.34
47873;BME280;73966;47.438;18.912;2023-12-07T04:54:14;99734.19;;;3.74;69.43
47873;BME280;73966;47.438;18.912;2023-12-07T04:56:47;99730.62;;;3.75;69.35
47873;BME280;73966;47.438;18.912;2023-12-07T04:59:17;99740.38;;;3.92;68.79
47873;BME280;73966;47.438;18.912;2023-12-07T05:01:47;99743.28;;;3.86;68.93
47873;BME280;73966;47.438;18.912;2023-12-07T05:04:16;99748.50;;;3.86;69.10
47873;BME280;73966;47.438;18.912;2023-12-07T05:06:46;99746.66;;;3.88;68.84
47873;BME280;73966;47.438;18.912;2023-12-07T05:09:15;99749.22;;;3.89;68.62
47873;BME280;73966;47.438;18.912;2023-12-07T05:11:44;99756.50;;;3.83;68.89
47873;BME280;73966;47.438;18.912;2023-12-07T05:14:13;99754.41;;;3.91;68.67
47873;BME280;73966;47.438;18.912;2023-12-07T05:16:46;99753.62;;;3.89;68.64
47873;BME280;73966;47.438;18.912;2023-12-07T05:19:22;99754.81;;;3.61;69.58
47873;BME280;73966;47.438;18.912;2023-12-07T05:21:51;99755.06;;;3.76;69.20
47873;BME280;73966;47.438;18.912;2023-12-07T05:24:23;99758.66;;;3.93;68.79
47873;BME280;73966;47.438;18.912;2023-12-07T05:26:54;99756.53;;;4.02;68.26
47873;BME280;73966;47.438;18.912;2023-12-07T05:29:23;99763.53;;;3.82;69.13
47873;BME280;73966;47.438;18.912;2023-12-07T05:31:58;99767.13;;;3.80;69.31
47873;BME280;73966;47.438;18.912;2023-12-07T05:34:28;99768.69;;;3.84;69.15
47873;BME280;73966;47.438;18.912;2023-12-07T05:36:57;99772.75;;;3.70;69.47
47873;BME280;73966;47.438;18.912;2023-12-07T05:39:26;99770.97;;;3.91;69.05
47873;BME280;73966;47.438;18.912;2023-12-07T05:41:57;99774.00;;;3.62;69.54
47873;BME280;73966;47.438;18.912;2023-12-07T05:44:26;99779.34;;;4.00;68.47
47873;BME280;73966;47.438;18.912;2023-12-07T05:46:56;99777.22;;;3.89;68.65
47873;BME280;73966;47.438;18.912;2023-12-07T05:49:28;99778.53;;;3.79;69.01
47873;BME280;73966;47.438;18.912;2023-12-07T05:51:58;99784.47;;;3.82;69.03
47873;BME280;73966;47.438;18.912;2023-12-07T05:54:28;99784.41;;;4.04;67.93
47873;BME280;73966;47.438;18.912;2023-12-07T05:56:57;99787.37;;;3.76;69.05
47873;BME280;73966;47.438;18.912;2023-12-07T05:59:27;99792.44;;;3.81;68.74
47873;BME280;73966;47.438;18.912;2023-12-07T06:01:57;99795.28;;;3.75;69.04
47873;BME280;73966;47.438;18.912;2023-12-07T06:04:28;99801.81;;;3.44;70.07
47873;BME280;73966;47.438;18.912;2023-12-07T06:06:57;99801.19;;;3.59;69.56
47873;BME280;73966;47.438;18.912;2023-12-07T06:09:27;99795.69;;;3.86;69.00
47873;BME280;73966;47.438;18.912;2023-12-07T06:11:56;99806.31;;;3.62;69.57
47873;BME280;73966;47.438;18.912;2023-12-07T06:14:27;99809.84;;;3.61;69.68
47873;BME280;73966;47.438;18.912;2023-12-07T06:16:57;99811.34;;;3.67;69.46
47873;BME280;73966;47.438;18.912;2023-12-07T06:19:28;99809.72;;;3.64;69.62
47873;BME280;73966;47.438;18.912;2023-12-07T06:21:57;99811.56;;;3.40;70.23
47873;BME280;73966;47.438;18.912;2023-12-07T06:24:27;99817.91;;;3.57;69.74
47873;BME280;73966;47.438;18.912;2023-12-07T06:26:56;99816.38;;;3.51;70.12
47873;BME280;73966;47.438;18.912;2023-12-07T06:29:25;99823.50;;;3.48;70.30
47873;BME280;73966;47.438;18.912;2023-12-07T06:31:57;99827.47;;;3.58;69.93
47873;BME280;73966;47.438;18.912;2023-12-07T06:34:29;99830.28;;;3.31;70.82
47873;BME280;73966;47.438;18.912;2023-12-07T06:36:58;99822.97;;;3.39;70.64
47873;BME280;73966;47.438;18.912;2023-12-07T06:39:28;99833.97;;;3.48;70.40
47873;BME280;73966;47.438;18.912;2023-12-07T06:41:56;99846.13;;;3.28;70.83
47873;BME280;73966;47.438;18.912;2023-12-07T06:44:28;99846.81;;;3.33;71.01
47873;BME280;73966;47.438;18.912;2023-12-07T06:46:57;99850.94;;;3.39;70.70
47873;BME280;73966;47.438;18.912;2023-12-07T06:49:26;99851.97;;;3.35;70.86
47873;BME280;73966;47.438;18.912;2023-12-07T06:52:15;99859.28;;;3.49;70.30
47873;BME280;73966;47.438;18.912;2023-12-07T06:54:44;99852.84;;;3.56;70.15
47873;BME280;73966;47.438;18.912;2023-12-07T06:57:14;99855.44;;;3.57;70.28
47873;BME280;73966;47.438;18.912;2023-12-07T06:59:44;99859.56;;;3.63;70.07
47873;BME280;73966;47.438;18.912;2023-12-07T07:02:14;99857.13;;;3.36;70.74
47873;BME280;73966;47.438;18.912;2023-12-07T07:04:43;99864.16;;;3.36;70.73
47873;BME280;73966;47.438;18.912;2023-12-07T07:07:12;99867.50;;;3.39;70.56
47873;BME280;73966;47.438;18.912;2023-12-07T07:09:43;99865.06;;;3.35;70.84
47873;BME280;73966;47.438;18.912;2023-12-07T07:12:13;99866.03;;;3.54;70.18
47873;BME280;73966;47.438;18.912;2023-12-07T07:14:42;99872.50;;;3.24;70.60
47873;BME280;73966;47.438;18.912;2023-12-07T07:17:13;99870.41;;;3.32;70.91
47873;BME280;73966;47.438;18.912;2023-12-07T07:19:43;99867.03;;;3.30;70.76
47873;BME280;73966;47.438;18.912;2023-12-07T07:22:12;99871.09;;;3.15;71.24
47873;BME280;73966;47.438;18.912;2023-12-07T07:24:43;99875.25;;;3.42;70.56
47873;BME280;73966;47.438;18.912;2023-12-07T07:27:12;99886.06;;;3.55;70.17
47873;BME280;73966;47.438;18.912;2023-12-07T07:29:41;99878.84;;;3.18;71.09
47873;BME280;73966;47.438;18.912;2023-12-07T07:32:11;99882.56;;;3.34;70.92
47873;BME280;73966;47.438;18.912;2023-12-07T07:34:40;99876.66;;;3.29;71.16
47873;BME280;73966;47.438;18.912;2023-12-07T07:37:09;99882.84;;;3.27;71.08
47873;BME280;73966;47.438;18.912;2023-12-07T07:39:38;99888.09;;;3.27;71.17
47873;BME280;73966;47.438;18.912;2023-12-07T07:42:09;99882.53;;;3.56;70.26
47873;BME280;73966;47.438;18.912;2023-12-07T07:44:40;99886.87;;;3.57;70.10
47873;BME280;73966;47.438;18.912;2023-12-07T07:47:09;99889.06;;;3.46;70.67
47873;BME280;73966;47.438;18.912;2023-12-07T07:49:38;99889.84;;;3.48;70.43
47873;BME280;73966;47.438;18.912;2023-12-07T07:52:11;99898.34;;;3.33;70.78
47873;BME280;73966;47.438;18.912;2023-12-07T07:54:42;99898.81;;;3.42;70.68
47873;BME280;73966;47.438;18.912;2023-12-07T07:57:12;99900.63;;;3.18;71.26
47873;BME280;73966;47.438;18.912;2023-12-07T07:59:41;99900.44;;;3.23;71.30
47873;BME280;73966;47.438;18.912;2023-12-07T08:02:11;99897.34;;;3.35;70.78
47873;BME280;73966;47.438;18.912;2023-12-07T08:04:40;99897.94;;;2.98;71.86
47873;BME280;73966;47.438;18.912;2023-12-07T08:07:10;99900.16;;;3.31;71.07
47873;BME280;73966;47.438;18.912;2023-12-07T08:09:39;99903.88;;;3.25;71.27
47873;BME280;73966;47.438;18.912;2023-12-07T08:12:08;99907.00;;;2.89;71.89
47873;BME280;73966;47.438;18.912;2023-12-07T08:14:39;99905.72;;;3.45;70.67
47873;BME280;73966;47.438;18.912;2023-12-07T08:17:11;99903.09;;;3.00;71.93
47873;BME280;73966;47.438;18.912;2023-12-07T08:19:41;99910.28;;;3.16;71.25
47873;BME280;73966;47.438;18.912;2023-12-07T08:22:10;99898.88;;;3.19;71.18
47873;BME280;73966;47.438;18.912;2023-12-07T08:24:40;99907.53;;;3.43;70.62
47873;BME280;73966;47.438;18.912;2023-12-07T08:27:11;99910.25;;;3.40;70.98
47873;BME280;73966;47.438;18.912;2023-12-07T08:29:42;99907.78;;;3.37;70.76
47873;BME280;73966;47.438;18.912;2023-12-07T08:32:11;99908.00;;;3.31;70.83
47873;BME280;73966;47.438;18.912;2023-12-07T08:34:42;99906.78;;;3.17;71.47
47873;BME280;73966;47.438;18.912;2023-12-07T08:37:12;99910.28;;;3.16;71.75
47873;BME280;73966;47.438;18.912;2023-12-07T08:39:41;99913.53;;;3.23;71.46
47873;BME280;73966;47.438;18.912;2023-12-07T08:42:12;99912.94;;;3.60;70.30
47873;BME280;73966;47.438;18.912;2023-12-07T08:44:43;99915.25;;;3.46;70.63
47873;BME280;73966;47.438;18.912;2023-12-07T08:47:30;99911.22;;;3.59;70.51
47873;BME280;73966;47.438;18.912;2023-12-07T08:49:59;99914.03;;;3.77;69.66
47873;BME280;73966;47.438;18.912;2023-12-07T08:52:28;99914.34;;;3.47;70.38
47873;BME280;73966;47.438;18.912;2023-12-07T08:55:12;99924.03;;;3.45;70.48
47873;BME280;73966;47.438;18.912;2023-12-07T08:57:46;99918.31;;;3.57;70.36
47873;BME280;73966;47.438;18.912;2023-12-07T09:00:17;99917.00;;;3.67;69.78
47873;BME280;73966;47.438;18.912;2023-12-07T09:02:52;99918.47;;;3.75;69.54
47873;BME280;73966;47.438;18.912;2023-12-07T09:05:25;99918.03;;;3.63;69.93
47873;BME280;73966;47.438;18.912;2023-12-07T09:07:55;99927.44;;;3.47;70.52
47873;BME280;73966;47.438;18.912;2023-12-07T09:10:24;99921.81;;;3.56;70.26
47873;BME280;73966;47.438;18.912;2023-12-07T09:12:56;99924.63;;;3.30;71.14
47873;BME280;73966;47.438;18.912;2023-12-07T09:15:27;99929.38;;;3.64;69.96
47873;BME280;73966;47.438;18.912;2023-12-07T09:17:57;99926.59;;;3.47;70.63
47873;BME280;73966;47.438;18.912;2023-12-07T09:20:28;99928.72;;;3.59;70.26
47873;BME280;73966;47.438;18.912;2023-12-07T09:22:57;99926.16;;;3.35;71.07
47873;BME280;73966;47.438;18.912;2023-12-07T09:25:26;99923.84;;;3.50;70.24
47873;BME280;73966;47.438;18.912;2023-12-07T09:28:00;99924.87;;;3.24;71.03
47873;BME280;73966;47.438;18.912;2023-12-07T09:30:32;99920.00;;;3.14;72.22
47873;BME280;73966;47.438;18.912;2023-12-07T09:33:03;99919.59;;;3.25;71.59
47873;BME280;73966;47.438;18.912;2023-12-07T09:35:34;99920.06;;;3.35;71.35
47873;BME280;73966;47.438;18.912;2023-12-07T09:38:03;99920.66;;;3.63;70.32
47873;BME280;73966;47.438;18.912;2023-12-07T09:40:32;99913.72;;;3.40;70.85
47873;BME280;73966;47.438;18.912;2023-12-07T09:43:02;99916.22;;;3.65;70.10
47873;BME280;73966;47.438;18.912;2023-12-07T09:45:32;99917.50;;;3.77;69.96
47873;BME280;73966;47.438;18.912;2023-12-07T09:48:05;99915.97;;;3.72;69.77
47873;BME280;73966;47.438;18.912;2023-12-07T09:50:36;99910.91;;;3.67;69.64
47873;BME280;73966;47.438;18.912;2023-12-07T09:53:07;99907.88;;;3.78;69.20
47873;BME280;73966;47.438;18.912;2023-12-07T09:55:37;99914.88;;;3.55;70.30
47873;BME280;73966;47.438;18.912;2023-12-07T09:58:07;99917.94;;;3.66;69.86
47873;BME280;73966;47.438;18.912;2023-12-07T10:00:38;99916.16;;;3.67;69.93
47873;BME280;73966;47.438;18.912;2023-12-07T10:03:20;99907.66;;;3.82;69.60
47873;BME280;73966;47.438;18.912;2023-12-07T10:05:55;99917.69;;;3.51;70.56
47873;BME280;73966;47.438;18.912;2023-12-07T10:08:28;99914.63;;;3.39;71.16
47873;BME280;73966;47.438;18.912;2023-12-07T10:11:08;99916.47;;;3.81;69.62
47873;BME280;73966;47.438;18.912;2023-12-07T10:13:38;99913.62;;;3.86;69.30
47873;BME280;73966;47.438;18.912;2023-12-07T10:16:12;99917.06;;;3.22;71.37
47873;BME280;73966;47.438;18.912;2023-12-07T10:18:43;99912.69;;;3.66;70.09
47873;BME280;73966;47.438;18.912;2023-12-07T10:21:12;99908.72;;;3.78;70.24
47873;BME280;73966;47.438;18.912;2023-12-07T10:23:42;99917.69;;;3.51;70.62
47873;BME280;73966;47.438;18.912;2023-12-07T10:26:17;99917.19;;;3.63;70.35
47873;BME280;73966;47.438;18.912;2023-12-07T10:28:49;99916.41;;;4.03;69.41
47873;BME280;73966;47.438;18.912;2023-12-07T10:31:24;99919.13;;;3.80;69.91
47873;BME280;73966;47.438;18.912;2023-12-07T10:33:55;99924.37;;;3.80;69.80
47873;BME280;73966;47.438;18.912;2023-12-07T10:36:24;99923.53;;;4.00;68.96
47873;BME280;73966;47.438;18.912;2023-12-07T10:38:53;99923.47;;;3.81;69.56
47873;BME280;73966;47.438;18.912;2023-12-07T10:41:24;99921.34;;;3.68;69.71
47873;BME280;73966;47.438;18.912;2023-12-07T10:43:59;99921.56;;;3.84;69.41
47873;BME280;73966;47.438;18.912;2023-12-07T10:46:32;99924.06;;;3.87;69.37
47873;BME280;73966;47.438;18.912;2023-12-07T10:49:04;99911.75;;;3.67;69.98
47873;BME280;73966;47.438;18.912;2023-12-07T10:51:52;99924.81;;;3.69;70.10
47873;BME280;73966;47.438;18.912;2023-12-07T10:54:25;99923.16;;;3.88;69.69
47873;BME280;73966;47.438;18.912;2023-12-07T10:56:58;99921.94;;;3.75;69.77
47873;BME280;73966;47.438;18.912;2023-12-07T10:59:32;99928.09;;;3.74;70.11
47873;BME280;73966;47.438;18.912;2023-12-07T11:02:08;99922.25;;;3.67;70.25
47873;BME280;73966;47.438;18.912;2023-12-07T11:04:39;99928.41;;;3.88;69.61
47873;BME280;73966;47.438;18.912;2023-12-07T11:07:15;99929.88;;;3.74;69.98
47873;BME280;73966;47.438;18.912;2023-12-07T11:09:52;99932.94;;;3.41;70.77
47873;BME280;73966;47.438;18.912;2023-12-07T11:12:29;99934.22;;;3.95;69.39
47873;BME280;73966;47.438;18.912;2023-12-07T11:15:01;99931.84;;;3.68;70.06
47873;BME280;73966;47.438;18.912;2023-12-07T11:17:47;99937.97;;;3.67;70.21
47873;BME280;73966;47.438;18.912;2023-12-07T11:20:21;99940.34;;;3.74;70.10
47873;BME280;73966;47.438;18.912;2023-12-07T11:22:50;99930.22;;;3.86;69.47
47873;BME280;73966;47.438;18.912;2023-12-07T11:25:20;99937.06;;;3.47;70.85
47873;BME280;73966;47.438;18.912;2023-12-07T11:28:00;99940.97;;;3.58;70.16
47873;BME280;73966;47.438;18.912;2023-12-07T11:30:31;99941.66;;;3.41;71.30
47873;BME280;73966;47.438;18.912;2023-12-07T11:33:05;99938.47;;;3.77;70.21
47873;BME280;73966;47.438;18.912;2023-12-07T11:36:02;99933.47;;;3.71;70.31
47873;BME280;73966;47.438;18.912;2023-12-07T11:38:32;99938.50;;;3.98;69.49
47873;BME280;73966;47.438;18.912;2023-12-07T11:41:01;99934.00;;;3.79;69.78
47873;BME280;73966;47.438;18.912;2023-12-07T11:43:40;99933.09;;;3.58;70.67
47873;BME280;73966;47.438;18.912;2023-12-07T11:46:14;99936.94;;;3.72;70.42
47873;BME280;73966;47.438;18.912;2023-12-07T11:48:51;99934.91;;;4.00;69.69
47873;BME280;73966;47.438;18.912;2023-12-07T11:51:21;99929.50;;;4.24;69.15
47873;BME280;73966;47.438;18.912;2023-12-07T11:53:51;99927.53;;;4.49;68.33
47873;BME280;73966;47.438;18.912;2023-12-07T11:56:21;99932.94;;;4.26;68.72
47873;BME280;73966;47.438;18.912;2023-12-07T11:58:50;99933.00;;;4.44;67.63
47873;BME280;73966;47.438;18.912;2023-12-07T12:01:25;99934.91;;;4.41;67.95
47873;BME280;73966;47.438;18.912;2023-12-07T12:03:57;99928.75;;;4.81;66.74
47873;BME280;73966;47.438;18.912;2023-12-07T12:06:29;99925.59;;;4.73;66.99
47873;BME280;73966;47.438;18.912;2023-12-07T12:08:58;99925.31;;;4.60;67.15
47873;BME280;73966;47.438;18.912;2023-12-07T12:11:27;99934.88;;;4.61;67.32
47873;BME280;73966;47.438;18.912;2023-12-07T12:13:58;99934.94;;;4.39;67.87
47873;BME280;73966;47.438;18.912;2023-12-07T12:16:27;99940.53;;;4.52;67.43
47873;BME280;73966;47.438;18.912;2023-12-07T12:19:01;99937.12;;;4.30;68.37
47873;BME280;73966;47.438;18.912;2023-12-07T12:21:33;99933.66;;;4.29;68.18
47873;BME280;73966;47.438;18.912;2023-12-07T12:24:03;99943.31;;;4.29;68.47
47873;BME280;73966;47.438;18.912;2023-12-07T12:26:33;99947.72;;;4.47;67.98
47873;BME280;73966;47.438;18.912;2023-12-07T12:29:03;99935.94;;;4.57;67.52
47873;BME280;73966;47.438;18.912;2023-12-07T12:31:37;99951.94;;;4.10;68.87
47873;BME280;73966;47.438;18.912;2023-12-07T12:36:43;99944.94;;;4.52;68.07
47873;BME280;73966;47.438;18.912;2023-12-07T12:39:12;99946.75;;;4.50;67.99
47873;BME280;73966;47.438;18.912;2023-12-07T12:41:56;99950.44;;;4.25;68.27
47873;BME280;73966;47.438;18.912;2023-12-07T12:44:27;99955.16;;;4.58;67.43
47873;BME280;73966;47.438;18.912;2023-12-07T12:47:05;99956.84;;;4.59;67.47
47873;BME280;73966;47.438;18.912;2023-12-07T12:49:38;99967.72;;;4.70;67.05
47873;BME280;73966;47.438;18.912;2023-12-07T12:52:11;99958.03;;;4.31;68.21
47873;BME280;73966;47.438;18.912;2023-12-07T12:54:42;99967.16;;;4.63;66.98
47873;BME280;73966;47.438;18.912;2023-12-07T12:57:12;99968.47;;;4.12;68.63
47873;BME280;73966;47.438;18.912;2023-12-07T12:59:42;99961.47;;;4.33;68.27
47873;BME280;73966;47.438;18.912;2023-12-07T13:02:13;99963.69;;;4.22;68.36
47873;BME280;73966;47.438;18.912;2023-12-07T13:04:43;99963.44;;;4.28;68.26
47873;BME280;73966;47.438;18.912;2023-12-07T13:07:19;99967.31;;;4.40;67.92
47873;BME280;73966;47.438;18.912;2023-12-07T13:09:49;99972.47;;;4.62;66.84
47873;BME280;73966;47.438;18.912;2023-12-07T13:12:18;99973.97;;;4.47;67.41
47873;BME280;73966;47.438;18.912;2023-12-07T13:14:48;99975.91;;;4.43;67.51
47873;BME280;73966;47.438;18.912;2023-12-07T13:17:19;99990.62;;;4.05;68.53
47873;BME280;73966;47.438;18.912;2023-12-07T13:19:48;99984.75;;;4.21;68.14
47873;BME280;73966;47.438;18.912;2023-12-07T13:22:19;99975.81;;;4.25;67.80